createdAt,value
2023-10-17T00:02:12.018Z,13.27
2023-10-17T00:04:43.568Z,12.60
2023-10-17T00:07:14.272Z,14.63
2023-10-17T00:09:43.795Z,13.47
2023-10-17T00:12:27.508Z,12.07
2023-10-17T00:15:02.327Z,12.50
2023-10-17T00:17:31.276Z,11.43
2023-10-17T00:20:00.211Z,12.60
2023-10-17T00:22:30.773Z,12.03
2023-10-17T00:25:11.509Z,11.47
2023-10-17T00:27:40.654Z,12.33
2023-10-17T00:30:18.651Z,11.60
2023-10-17T00:32:49.054Z,13.77
2023-10-17T00:35:20.757Z,14.07
2023-10-17T00:37:55.345Z,13.53
2023-10-17T00:40:38.276Z,16.50
2023-10-17T00:43:07.969Z,18.23
2023-10-17T00:45:36.740Z,20.60
2023-10-17T00:48:10.007Z,19.73
2023-10-17T00:50:40.898Z,18.07
2023-10-17T00:53:12.781Z,15.97
2023-10-17T00:55:41.777Z,18.47
2023-10-17T00:58:11.179Z,18.60
2023-10-17T01:00:42.577Z,17.73
2023-10-17T01:03:12.460Z,17.53
2023-10-17T01:05:47.887Z,18.13
2023-10-17T01:08:18.957Z,16.50
2023-10-17T01:10:48.889Z,17.73
2023-10-17T01:13:17.748Z,18.03
2023-10-17T01:15:48.896Z,17.93
2023-10-17T01:18:18.045Z,17.37
2023-10-17T01:20:46.946Z,16.33
2023-10-17T01:23:16.641Z,15.27
2023-10-17T01:25:48.436Z,17.20
2023-10-17T01:28:19.849Z,16.20
2023-10-17T01:30:48.598Z,15.10
2023-10-17T01:33:18.177Z,14.87
2023-10-17T01:35:47.241Z,17.63
2023-10-17T01:38:15.692Z,14.93
2023-10-17T01:40:45.572Z,14.87
2023-10-17T01:43:13.979Z,14.60
2023-10-17T01:45:43.782Z,13.93
2023-10-17T01:48:14.937Z,14.03
2023-10-17T01:50:45.766Z,12.70
2023-10-17T01:53:15.027Z,11.97
2023-10-17T01:55:50.344Z,9.27
2023-10-17T01:58:23.667Z,11.23
2023-10-17T02:00:56.342Z,12.63
2023-10-17T02:03:24.784Z,12.20
2023-10-17T02:05:53.647Z,12.67
2023-10-17T02:08:23.450Z,11.50
2023-10-17T02:10:51.913Z,12.37
2023-10-17T02:13:22.605Z,12.10
2023-10-17T02:15:52.370Z,12.00
2023-10-17T02:18:20.988Z,11.23
2023-10-17T02:20:52.838Z,11.93
2023-10-17T02:23:27.708Z,12.30
2023-10-17T02:25:56.778Z,12.43
2023-10-17T02:28:26.685Z,13.43
2023-10-17T02:30:59.909Z,12.80
2023-10-17T02:33:30.284Z,14.67
2023-10-17T02:36:09.855Z,15.53
2023-10-17T02:38:38.312Z,15.77
2023-10-17T02:41:10.275Z,16.27
2023-10-17T02:43:41.765Z,17.87
2023-10-17T02:46:10.281Z,18.20
2023-10-17T02:48:41.739Z,17.87
2023-10-17T02:51:24.167Z,17.77
2023-10-17T02:53:53.510Z,19.13
2023-10-17T02:56:22.354Z,18.53
2023-10-17T02:59:00.892Z,17.73
2023-10-17T03:01:29.582Z,17.63
2023-10-17T03:03:58.035Z,17.20
2023-10-17T03:06:26.732Z,16.67
2023-10-17T03:09:15.213Z,14.33
2023-10-17T03:11:52.146Z,15.40
2023-10-17T03:14:24.946Z,14.17
2023-10-17T03:16:55.628Z,14.17
2023-10-17T03:19:27.105Z,15.83
2023-10-17T03:21:56.437Z,15.30
2023-10-17T03:24:30.807Z,14.67
2023-10-17T03:27:08.942Z,15.47
2023-10-17T03:29:43.321Z,13.60
2023-10-17T03:32:13.509Z,13.57
2023-10-17T03:34:46.966Z,13.47
2023-10-17T03:37:29.697Z,13.43
2023-10-17T03:39:59.312Z,12.23
2023-10-17T03:42:44.663Z,12.23
2023-10-17T03:45:18.064Z,11.60
2023-10-17T03:47:50.570Z,12.20
2023-10-17T03:53:17.271Z,11.40
2023-10-17T03:55:50.196Z,10.97
2023-10-17T03:58:29.927Z,10.67
2023-10-17T04:00:59.864Z,11.10
2023-10-17T04:03:32.055Z,10.67
2023-10-17T04:06:19.352Z,10.73
2023-10-17T04:08:58.190Z,11.23
2023-10-17T04:11:37.917Z,10.77
2023-10-17T04:14:10.134Z,12.30
2023-10-17T04:16:40.735Z,11.40
2023-10-17T04:19:18.490Z,10.90
2023-10-17T04:21:57.659Z,11.23
2023-10-17T04:24:35.912Z,11.20
2023-10-17T04:27:23.798Z,11.60
2023-10-17T04:29:58.062Z,11.97
2023-10-17T04:32:31.002Z,12.83
2023-10-17T04:35:01.164Z,13.03
2023-10-17T04:37:36.117Z,12.27
2023-10-17T04:40:23.921Z,13.43
2023-10-17T04:43:19.873Z,12.43
2023-10-17T04:45:56.361Z,13.27
2023-10-17T04:48:33.753Z,12.40
2023-10-17T04:51:13.488Z,14.60
2023-10-17T04:53:49.162Z,13.50
2023-10-17T04:56:20.110Z,12.90
2023-10-17T04:58:55.237Z,13.83
2023-10-17T05:01:37.446Z,14.87
2023-10-17T05:04:20.514Z,12.77
2023-10-17T05:07:03.628Z,13.40
2023-10-17T05:09:49.505Z,11.83
2023-10-17T05:12:36.716Z,13.10
2023-10-17T05:15:28.403Z,11.60
2023-10-17T05:18:14.349Z,12.90
2023-10-17T05:21:00.320Z,12.77
2023-10-17T05:23:46.150Z,12.20
2023-10-17T05:26:32.141Z,12.60
2023-10-17T05:29:19.450Z,12.40
2023-10-17T05:32:05.182Z,13.47
2023-10-17T05:34:51.288Z,13.27
2023-10-17T05:37:38.227Z,14.33
2023-10-17T05:40:26.234Z,14.53
2023-10-17T05:43:12.017Z,13.23
2023-10-17T05:45:59.031Z,13.00
2023-10-17T05:48:44.773Z,13.10
2023-10-17T05:51:30.549Z,12.30
2023-10-17T05:57:04.727Z,10.77
2023-10-17T05:59:50.663Z,11.23
2023-10-17T06:02:38.001Z,11.63
2023-10-17T06:05:26.701Z,11.70
2023-10-17T06:08:12.187Z,11.30
2023-10-17T06:10:57.676Z,11.90
2023-10-17T06:13:43.298Z,11.67
2023-10-17T06:16:29.378Z,12.13
2023-10-17T06:18:59.689Z,10.87
2023-10-17T06:21:38.014Z,12.00
2023-10-17T06:24:29.630Z,12.07
2023-10-17T06:27:13.643Z,10.10
2023-10-17T06:29:59.184Z,10.53
2023-10-17T06:32:41.359Z,11.47
2023-10-17T06:35:22.359Z,11.93
2023-10-17T06:37:51.297Z,14.00
2023-10-17T06:40:19.833Z,14.03
2023-10-17T06:42:50.983Z,12.90
2023-10-17T06:45:21.614Z,15.33
2023-10-17T06:47:49.630Z,12.57
2023-10-17T06:50:39.856Z,12.07
2023-10-17T06:53:12.675Z,10.77
2023-10-17T06:55:44.634Z,9.30
2023-10-17T06:58:15.914Z,11.63
2023-10-17T07:00:51.560Z,12.40
2023-10-17T07:03:28.165Z,13.93
2023-10-17T07:06:13.354Z,13.90
2023-10-17T07:08:47.340Z,12.87
2023-10-17T07:11:27.774Z,16.10
2023-10-17T07:14:25.158Z,15.30
2023-10-17T07:17:02.008Z,15.27
2023-10-17T07:19:48.134Z,15.80
2023-10-17T07:22:18.123Z,14.90
2023-10-17T07:24:50.343Z,14.63
2023-10-17T07:27:28.722Z,14.23
2023-10-17T07:30:11.992Z,14.30
2023-10-17T07:32:57.304Z,15.47
2023-10-17T07:35:26.696Z,17.80
2023-10-17T07:37:57.491Z,18.83
2023-10-17T07:40:43.836Z,17.57
2023-10-17T07:43:12.418Z,13.70
2023-10-17T07:45:43.999Z,13.60
2023-10-17T07:48:23.406Z,13.67
2023-10-17T07:50:52.818Z,13.23
2023-10-17T07:53:23.968Z,13.70
2023-10-17T07:55:55.645Z,15.07
2023-10-17T07:58:43.737Z,15.10
2023-10-17T08:01:16.972Z,14.53
2023-10-17T08:03:57.251Z,15.13
2023-10-17T08:06:31.246Z,15.10
2023-10-17T08:09:04.363Z,14.10
2023-10-17T08:11:33.494Z,15.47
2023-10-17T08:14:10.815Z,16.13
2023-10-17T08:16:44.284Z,15.20
2023-10-17T08:19:16.424Z,14.50
2023-10-17T08:22:01.807Z,14.47
2023-10-17T08:24:35.165Z,14.40
2023-10-17T08:27:19.477Z,13.90
2023-10-17T08:29:50.278Z,14.33
2023-10-17T08:32:36.851Z,16.93
2023-10-17T08:35:11.234Z,14.97
2023-10-17T08:37:45.712Z,15.83
2023-10-17T08:40:33.630Z,17.63
2023-10-17T08:43:04.841Z,15.80
2023-10-17T08:45:38.794Z,16.83
2023-10-17T08:48:10.898Z,15.80
2023-10-17T08:50:44.560Z,15.77
2023-10-17T08:53:21.650Z,14.53
2023-10-17T08:55:52.334Z,14.63
2023-10-17T08:58:26.637Z,15.67
2023-10-17T09:00:58.928Z,17.37
2023-10-17T09:03:37.371Z,15.80
2023-10-17T09:06:25.396Z,17.10
2023-10-17T09:08:57.371Z,14.80
2023-10-17T09:11:35.513Z,14.50
2023-10-17T09:14:19.424Z,14.27
2023-10-17T09:16:52.182Z,13.47
2023-10-17T09:19:22.792Z,13.20
2023-10-17T09:21:51.617Z,11.33
2023-10-17T09:24:33.949Z,11.43
2023-10-17T09:27:07.514Z,12.10
2023-10-17T09:29:51.815Z,12.77
2023-10-17T09:32:37.597Z,11.73
2023-10-17T09:35:12.684Z,12.20
2023-10-17T09:37:43.362Z,10.67
2023-10-17T09:40:23.502Z,10.43
2023-10-17T09:42:55.049Z,10.03
2023-10-17T09:45:33.944Z,9.23
2023-10-17T09:48:06.521Z,9.53
2023-10-17T09:50:37.543Z,9.13
2023-10-17T09:53:19.403Z,9.33
2023-10-17T09:55:50.765Z,8.37
2023-10-17T09:58:25.708Z,8.57
2023-10-17T10:00:57.523Z,8.00
2023-10-17T10:03:29.784Z,8.00
2023-10-17T10:06:23.431Z,7.53
2023-10-17T10:08:56.921Z,7.63
2023-10-17T10:12:00.030Z,6.97
2023-10-17T10:14:45.268Z,7.20
2023-10-17T10:17:16.483Z,6.87
2023-10-17T10:20:00.058Z,6.73
2023-10-17T10:22:54.887Z,7.73
2023-10-17T10:25:24.199Z,5.73
2023-10-17T10:28:34.917Z,5.47
2023-10-17T10:31:40.155Z,5.83
2023-10-17T10:34:09.733Z,5.33
2023-10-17T10:36:39.443Z,5.90
2023-10-17T10:39:19.852Z,5.60
2023-10-17T10:42:02.007Z,5.23
2023-10-17T10:44:30.845Z,5.27
2023-10-17T10:47:01.130Z,4.97
2023-10-17T10:49:30.619Z,5.40
2023-10-17T10:52:00.501Z,4.70
2023-10-17T10:54:55.745Z,4.30
2023-10-17T10:57:29.543Z,4.80
2023-10-17T10:59:59.519Z,4.77
2023-10-17T11:02:31.853Z,4.97
2023-10-17T11:05:00.994Z,4.80
2023-10-17T11:07:29.643Z,4.67
2023-10-17T11:10:05.193Z,4.30
2023-10-17T11:12:33.640Z,5.63
2023-10-17T11:15:13.231Z,5.10
2023-10-17T11:17:43.952Z,3.97
2023-10-17T11:20:20.620Z,4.10
2023-10-17T11:22:49.514Z,3.90
2023-10-17T11:25:23.170Z,3.80
2023-10-17T11:27:57.595Z,3.77
2023-10-17T11:30:35.919Z,3.20
2023-10-17T11:33:07.437Z,3.00
2023-10-17T11:35:36.714Z,2.90
2023-10-17T11:38:09.019Z,2.60
2023-10-17T11:40:46.048Z,3.57
2023-10-17T11:43:22.288Z,2.67
2023-10-17T11:45:50.781Z,2.80
2023-10-17T11:48:30.800Z,2.63
2023-10-17T11:51:17.445Z,2.50
2023-10-17T11:54:14.724Z,2.50
2023-10-17T11:56:46.810Z,2.70
2023-10-17T11:59:19.516Z,2.23
2023-10-17T12:01:48.581Z,2.30
2023-10-17T12:04:19.347Z,2.20
2023-10-17T12:06:49.029Z,2.37
2023-10-17T12:09:24.299Z,2.00
2023-10-17T12:11:54.893Z,2.17
2023-10-17T12:14:24.763Z,2.20
2023-10-17T12:16:56.450Z,2.90
2023-10-17T12:19:28.670Z,2.67
2023-10-17T12:21:57.625Z,2.40
2023-10-17T12:24:30.696Z,2.50
2023-10-17T12:26:58.670Z,2.60
2023-10-17T12:29:27.547Z,2.50
2023-10-17T12:31:56.071Z,2.57
2023-10-17T12:34:26.378Z,2.60
2023-10-17T12:36:54.894Z,2.93
2023-10-17T12:39:26.272Z,2.50
2023-10-17T12:41:57.539Z,2.90
2023-10-17T12:44:26.622Z,3.07
2023-10-17T12:46:55.122Z,2.87
2023-10-17T12:49:25.753Z,3.17
2023-10-17T12:51:55.804Z,3.27
2023-10-17T12:54:28.084Z,3.93
2023-10-17T12:56:57.009Z,3.10
2023-10-17T12:59:25.458Z,3.13
2023-10-17T13:01:53.974Z,2.73
2023-10-17T13:04:22.667Z,3.87
2023-10-17T13:06:54.985Z,3.73
2023-10-17T13:09:25.348Z,3.93
2023-10-17T13:11:53.875Z,3.63
2023-10-17T13:14:22.316Z,2.90
2023-10-17T13:16:50.890Z,2.97
2023-10-17T13:19:20.513Z,3.07
2023-10-17T13:21:49.082Z,2.57
2023-10-17T13:24:17.787Z,2.77
2023-10-17T13:26:47.871Z,2.53
2023-10-17T13:29:16.318Z,2.57
2023-10-17T13:31:45.536Z,2.20
2023-10-17T13:34:14.021Z,2.40
2023-10-17T13:36:42.646Z,2.60
2023-10-17T13:39:11.178Z,2.70
2023-10-17T13:41:40.030Z,2.40
2023-10-17T13:44:12.920Z,2.50
2023-10-17T13:46:41.417Z,3.53
2023-10-17T13:49:10.852Z,3.03
2023-10-17T13:51:47.900Z,2.53
2023-10-17T13:54:18.127Z,2.53
2023-10-17T13:56:46.553Z,2.47
2023-10-17T13:59:16.425Z,2.10
2023-10-17T14:01:46.710Z,2.40
2023-10-17T14:04:15.830Z,2.20
2023-10-17T14:06:44.671Z,2.87
2023-10-17T14:09:24.624Z,2.90
2023-10-17T14:11:53.397Z,2.80
2023-10-17T14:14:26.393Z,2.50
2023-10-17T14:16:57.257Z,2.33
2023-10-17T14:19:38.546Z,2.43
2023-10-17T14:22:10.213Z,2.70
2023-10-17T14:25:02.247Z,2.70
2023-10-17T14:27:33.508Z,2.50
2023-10-17T14:30:03.475Z,2.80
2023-10-17T14:32:32.161Z,2.70
2023-10-17T14:35:00.966Z,2.57
2023-10-17T14:37:29.702Z,2.43
2023-10-17T14:39:58.481Z,2.90
2023-10-17T14:42:29.074Z,3.40
2023-10-17T14:44:57.689Z,3.30
2023-10-17T14:47:27.903Z,3.00
2023-10-17T14:49:56.367Z,3.20
2023-10-17T14:52:25.599Z,3.83
2023-10-17T14:54:54.238Z,4.00
2023-10-17T14:57:23.150Z,3.97
2023-10-17T14:59:51.676Z,4.20
2023-10-17T15:02:20.708Z,4.23
2023-10-17T15:04:53.891Z,4.10
2023-10-17T15:07:22.337Z,4.60
2023-10-17T15:09:51.895Z,4.00
2023-10-17T15:12:21.810Z,4.53
2023-10-17T15:14:50.335Z,4.63
2023-10-17T15:17:19.676Z,5.77
2023-10-17T15:19:51.536Z,7.30
2023-10-17T15:22:20.012Z,7.53
2023-10-17T15:24:54.234Z,9.47
2023-10-17T15:27:23.589Z,9.80
2023-10-17T15:29:55.246Z,10.10
2023-10-17T15:32:25.378Z,9.67
2023-10-17T15:34:55.471Z,8.87
2023-10-17T15:37:24.496Z,10.83
2023-10-17T15:39:54.786Z,11.40
2023-10-17T15:42:23.342Z,13.00
2023-10-17T15:44:51.791Z,18.87
2023-10-17T15:47:20.172Z,32.77
2023-10-17T15:49:49.942Z,37.37
2023-10-17T15:52:20.415Z,36.70
2023-10-17T15:54:51.799Z,37.03
2023-10-17T15:57:20.519Z,36.73
2023-10-17T15:59:50.913Z,31.60
2023-10-17T16:02:19.389Z,22.70
2023-10-17T16:04:49.541Z,20.00
2023-10-17T16:07:19.586Z,17.63
2023-10-17T16:09:51.298Z,17.57
2023-10-17T16:12:20.089Z,20.17
2023-10-17T16:14:48.858Z,19.87
2023-10-17T16:17:17.391Z,18.57
2023-10-17T16:19:45.789Z,18.43
2023-10-17T16:22:14.340Z,20.37
2023-10-17T16:24:44.220Z,21.10
2023-10-17T16:27:12.680Z,20.30
2023-10-17T16:29:41.835Z,18.47
2023-10-17T16:32:11.194Z,18.97
2023-10-17T16:34:39.756Z,20.47
2023-10-17T16:37:08.729Z,20.80
2023-10-17T16:39:37.224Z,21.47
2023-10-17T16:42:07.358Z,22.00
2023-10-17T16:44:35.883Z,22.73
2023-10-17T16:47:06.564Z,22.43
2023-10-17T16:49:36.900Z,21.53
2023-10-17T16:52:05.634Z,22.40
2023-10-17T16:54:34.897Z,21.73
2023-10-17T16:57:03.789Z,24.10
2023-10-17T16:59:34.006Z,23.73
2023-10-17T17:02:02.598Z,25.13
2023-10-17T17:04:33.039Z,27.23
2023-10-17T17:07:01.832Z,26.70
2023-10-17T17:09:30.680Z,27.63
2023-10-17T17:11:59.312Z,31.93
2023-10-17T17:14:28.119Z,53.43
2023-10-17T17:16:58.725Z,78.90
2023-10-17T17:19:29.935Z,76.60
2023-10-17T17:21:58.894Z,59.17
2023-10-17T17:24:27.945Z,44.03
2023-10-17T17:26:57.671Z,35.80
2023-10-17T17:29:28.283Z,31.47
2023-10-17T17:31:59.088Z,30.63
2023-10-17T17:34:27.861Z,30.33
2023-10-17T17:36:56.570Z,35.83
2023-10-17T17:39:25.814Z,37.47
2023-10-17T17:41:54.394Z,35.37
2023-10-17T17:44:22.808Z,32.53
2023-10-17T17:46:52.848Z,32.03
2023-10-17T17:49:23.313Z,31.60
2023-10-17T17:51:52.408Z,30.73
2023-10-17T17:54:20.884Z,31.87
2023-10-17T17:56:49.572Z,30.77
2023-10-17T17:59:18.122Z,32.70
2023-10-17T18:01:46.563Z,35.47
2023-10-17T18:04:29.501Z,36.57
2023-10-17T18:07:01.132Z,35.47
2023-10-17T18:09:30.676Z,38.43
2023-10-17T18:12:00.980Z,37.63
2023-10-17T18:14:29.517Z,33.33
2023-10-17T18:16:58.185Z,36.40
2023-10-17T18:19:27.214Z,36.30
2023-10-17T18:21:56.054Z,36.47
2023-10-17T18:24:26.123Z,35.90
2023-10-17T18:26:56.712Z,36.67
2023-10-17T18:29:25.773Z,39.43
2023-10-17T18:31:54.257Z,61.27
2023-10-17T18:34:25.253Z,137.83
2023-10-17T18:36:53.806Z,77.13
2023-10-17T18:39:22.270Z,43.37
2023-10-17T18:41:52.827Z,39.17
2023-10-17T18:44:21.351Z,37.47
2023-10-17T18:46:49.874Z,37.00
2023-10-17T18:49:18.376Z,36.77
2023-10-17T18:51:46.934Z,34.87
2023-10-17T18:54:16.000Z,34.50
2023-10-17T18:56:44.429Z,33.17
2023-10-17T18:59:14.399Z,33.43
2023-10-17T19:01:43.210Z,33.03
2023-10-17T19:04:11.832Z,30.57
2023-10-17T19:06:40.668Z,32.03
2023-10-17T19:09:12.348Z,28.97
2023-10-17T19:11:41.010Z,29.97
2023-10-17T19:14:10.886Z,29.53
2023-10-17T19:16:42.126Z,31.03
2023-10-17T19:19:11.219Z,34.20
2023-10-17T19:21:40.465Z,34.57
2023-10-17T19:24:09.859Z,32.03
2023-10-17T19:26:38.451Z,32.50
2023-10-17T19:29:06.958Z,31.63
2023-10-17T19:31:35.676Z,30.70
2023-10-17T19:34:07.031Z,29.37
2023-10-17T19:36:35.632Z,27.37
2023-10-17T19:39:08.418Z,27.77
2023-10-17T19:41:36.856Z,27.47
2023-10-17T19:44:07.146Z,27.33
2023-10-17T19:46:40.088Z,28.53
2023-10-17T19:49:10.756Z,33.23
2023-10-17T19:51:40.125Z,30.67
2023-10-17T19:54:08.814Z,40.63
2023-10-17T19:56:42.343Z,142.23
2023-10-17T19:59:11.699Z,74.00
2023-10-17T20:01:41.235Z,90.10
2023-10-17T20:04:12.067Z,39.73
2023-10-17T20:06:44.644Z,32.23
2023-10-17T20:09:17.026Z,31.87
2023-10-17T20:11:45.419Z,30.47
2023-10-17T20:14:14.226Z,31.27
2023-10-17T20:16:42.914Z,30.33
2023-10-17T20:19:13.983Z,32.63
2023-10-17T20:21:42.657Z,32.53
2023-10-17T20:24:13.355Z,32.73
2023-10-17T20:26:41.966Z,29.77
2023-10-17T20:29:13.649Z,29.63
2023-10-17T20:31:42.175Z,32.97
2023-10-17T20:34:11.446Z,30.53
2023-10-17T20:36:41.409Z,33.20
2023-10-17T20:39:09.991Z,30.23
2023-10-17T20:41:41.030Z,28.03
2023-10-17T20:44:09.473Z,27.67
2023-10-17T20:46:38.924Z,25.30
2023-10-17T20:49:07.871Z,25.10
2023-10-17T20:51:37.785Z,24.53
2023-10-17T20:54:08.364Z,24.30
2023-10-17T20:56:42.263Z,23.80
2023-10-17T20:59:11.552Z,24.13
2023-10-17T21:01:40.210Z,23.60
2023-10-17T21:04:09.389Z,22.40
2023-10-17T21:06:38.154Z,22.50
2023-10-17T21:09:21.448Z,22.33
2023-10-17T21:11:49.832Z,23.97
2023-10-17T21:14:18.307Z,24.03
2023-10-17T21:16:49.341Z,23.13
2023-10-17T21:19:18.146Z,24.10
2023-10-17T21:21:47.371Z,24.27
2023-10-17T21:24:17.642Z,23.60
2023-10-17T21:26:46.192Z,23.30
2023-10-17T21:29:15.376Z,22.40
2023-10-17T21:31:46.065Z,28.67
2023-10-17T21:34:16.200Z,27.57
2023-10-17T21:36:44.801Z,33.70
2023-10-17T21:39:17.211Z,40.30
2023-10-17T21:41:47.800Z,38.87
2023-10-17T21:44:16.389Z,37.83
2023-10-17T21:46:45.682Z,47.17
2023-10-17T21:49:14.365Z,46.80
2023-10-17T21:51:42.886Z,40.57
2023-10-17T21:54:11.309Z,43.27
2023-10-17T21:56:39.770Z,44.73
2023-10-17T21:59:09.614Z,43.50
2023-10-17T22:01:38.191Z,44.73
2023-10-17T22:04:10.071Z,45.73
2023-10-17T22:06:39.701Z,43.27
2023-10-17T22:09:13.025Z,44.37
2023-10-17T22:11:41.548Z,42.60
2023-10-17T22:14:11.525Z,41.37
2023-10-17T22:16:40.756Z,40.97
2023-10-17T22:19:10.908Z,41.80
2023-10-17T22:21:39.478Z,41.97
2023-10-17T22:24:09.075Z,41.47
2023-10-17T22:26:40.782Z,40.40
2023-10-17T22:29:11.127Z,39.53
2023-10-17T22:31:40.390Z,37.70
2023-10-17T22:34:10.126Z,37.73
2023-10-17T22:36:42.342Z,39.57
2023-10-17T22:39:12.621Z,38.90
2023-10-17T22:41:49.966Z,39.70
2023-10-17T22:44:19.806Z,46.60
2023-10-17T22:46:48.299Z,51.03
2023-10-17T22:49:16.809Z,41.67
2023-10-17T22:51:45.347Z,38.77
2023-10-17T22:54:14.124Z,36.80
2023-10-17T22:56:42.808Z,37.83
2023-10-17T22:59:12.003Z,35.80
2023-10-17T23:01:42.173Z,38.13
2023-10-17T23:04:12.947Z,35.40
2023-10-17T23:06:43.954Z,38.33
2023-10-17T23:09:13.213Z,40.03
2023-10-17T23:11:44.825Z,46.73
2023-10-17T23:14:16.161Z,43.63
2023-10-17T23:16:48.153Z,45.87
2023-10-17T23:19:18.235Z,48.30
2023-10-17T23:21:49.210Z,48.70
2023-10-17T23:24:21.156Z,40.17
2023-10-17T23:26:49.694Z,35.73
2023-10-17T23:29:18.485Z,36.03
2023-10-17T23:31:53.732Z,37.90
2023-10-17T23:34:22.507Z,36.20
2023-10-17T23:36:51.185Z,35.43
2023-10-17T23:39:23.580Z,35.40
2023-10-17T23:41:54.060Z,35.93
2023-10-17T23:44:22.496Z,33.80
2023-10-17T23:46:54.916Z,32.40
2023-10-17T23:49:26.033Z,33.13
2023-10-17T23:51:55.195Z,31.83
2023-10-17T23:54:23.936Z,30.43
2023-10-17T23:56:53.701Z,31.47
2023-10-17T23:59:24.922Z,30.23
